Погода Пализадана 2 недели

Кампече, Мексика

26 февраля-10 марта
  • 26февраля
    Сегодня
    +20°
    +35°
    Ясно и безоблачно
    ВремяПогодаТемператураВлажностьДавлениеВетер, м/сВероятность осадков
    00:00Ясно и безоблачно+22°C87 %764 мм2.9 м/с2 %
    03:00Ясно и безоблачно+19°C95 %762 мм2.0 м/с2 %
    06:00Ясно и безоблачно+18°C97 %763 мм1.5 м/с2 %
    09:00Ясно и безоблачно+24°C74 %764 мм0.9 м/с2 %
    12:00Ясно и безоблачно+29°C54 %763 мм2.0 м/с2 %
    15:00Ясно и безоблачно+34°C45 %760 мм2.5 м/с2 %
    18:00Ясно и безоблачно+29°C59 %760 мм1.1 м/с2 %
    21:00Ясно и безоблачно+23°C84 %761 мм2.8 м/с2 %
  • 27февраля
    Вторник
    +21°
    +35°
    Ясно и безоблачно
    ВремяПогодаТемператураВлажностьДавлениеВетер, м/сВероятность осадков
    00:00Ясно и безоблачно+24°C83 %761 мм3.8 м/с2 %
    03:00Ясно и безоблачно+21°C87 %759 мм2.6 м/с2 %
    06:00Ясно и безоблачно+21°C86 %760 мм4.1 м/с2 %
    09:00Ясно и безоблачно+26°C75 %761 мм4.6 м/с2 %
    12:00Ясно и безоблачно+30°C51 %760 мм5.2 м/с2 %
    15:00Ясно и безоблачно+34°C43 %757 мм4.5 м/с2 %
    18:00Ясно и безоблачно+29°C54 %757 мм2.3 м/с2 %
    21:00Ясно и безоблачно+25°C60 %758 мм2.3 м/с2 %
  • 28февраля
    Среда
    +22°
    +37°
    Ясно и безоблачно
    ВремяПогодаТемператураВлажностьДавлениеВетер, м/сВероятность осадков
    00:00Ясно и безоблачно+23°C81 %758 мм3.7 м/с2 %
    03:00Ясно и безоблачно+23°C76 %757 мм5.0 м/с2 %
    06:00Ясно и безоблачно+21°C85 %758 мм4.9 м/с2 %
    09:00Ясно и безоблачно+27°C73 %760 мм5.1 м/с2 %
    12:00Ясно и безоблачно+31°C55 %759 мм4.8 м/с2 %
    15:00Ясно и безоблачно+37°C46 %757 мм3.7 м/с2 %
    18:00Ясно и безоблачно+31°C60 %758 мм1.8 м/с2 %
    21:00Ясно и безоблачно+26°C69 %760 мм2.4 м/с2 %
  • 29февраля
    Четверг
    +22°
    +36°
    Ясно и безоблачно
    ВремяПогодаТемператураВлажностьДавлениеВетер, м/сВероятность осадков
    00:00Ясно и безоблачно+26°C80 %761 мм3.8 м/с2 %
    03:00Ясно и безоблачно+24°C77 %760 мм3.5 м/с2 %
    06:00Ясно и безоблачно+23°C84 %761 мм3.9 м/с2 %
    09:00Ясно и безоблачно+27°C72 %763 мм4.5 м/с2 %
    12:00Ясно и безоблачно+31°C53 %762 мм4.1 м/с7 %
    15:00Ясно и безоблачно+36°C44 %759 мм3.4 м/с6 %
    18:00Ясно и безоблачно+30°C62 %760 мм1.9 м/с4 %
    21:00Ясно и безоблачно+25°C75 %761 мм3.1 м/с2 %
  • 01марта
    Пятница
    +23°
    +36°
    Ясно и безоблачно
    ВремяПогодаТемператураВлажностьДавлениеВетер, м/сВероятность осадков
    00:00Небольшая облачность+25°C83 %761 мм3.3 м/с2 %
    03:00Ясно и безоблачно+24°C80 %760 мм3.3 м/с2 %
    06:00Ясно и безоблачно+23°C77 %761 мм4.3 м/с2 %
    09:00Ясно и безоблачно+27°C67 %762 мм5.1 м/с2 %
    12:00Ясно и безоблачно+32°C44 %761 мм4.7 м/с5 %
    15:00Ясно и безоблачно+36°C37 %758 мм3.9 м/с2 %
    18:00Ясно и безоблачно+31°C50 %759 мм1.9 м/с2 %
    21:00Ясно и безоблачно+24°C75 %760 мм3.3 м/с2 %
Мы используем cookies
Соглашаюсь